Time;durP1;ratioP1;P1;durP2;ratioP2;P2;SDS_P1;SDS_P2;PMS_P1;PMS_P2;Temp;Humidity;BMP_temperature;BMP_pressure;BME280_temperature;BME280_humidity;BME280_pressure;Samples;Min_cycle;Max_cycle;Signal;HPM_P1;HPM_P2
2022/01/31 00:00:44;;;;;;;7.15;3.53;;;;;;;-0.32;100.00;95441.38;4971703;28;20034;-68
2022/01/31 00:03:11;;;;;;;9.65;3.40;;;;;;;-0.32;100.00;95430.84;4984987;23;20034;-66
2022/01/31 00:05:37;;;;;;;11.27;3.50;;;;;;;-0.30;100.00;95431.47;4984714;28;20057;-66
2022/01/31 00:08:04;;;;;;;8.85;3.30;;;;;;;-0.29;100.00;95412.03;4986566;28;20183;-65
2022/01/31 00:10:31;;;;;;;7.50;3.63;;;;;;;-0.26;100.00;95402.94;4972928;28;20484;-66
2022/01/31 00:13:16;;;;;;;6.32;3.22;;;;;;;-0.20;100.00;95402.19;4975346;28;20683;-66
2022/01/31 00:15:46;;;;;;;8.55;4.05;;;;;;;-0.18;100.00;95387.00;4993604;28;20538;-66
2022/01/31 00:18:14;;;;;;;6.65;3.20;;;;;;;-0.16;100.00;95379.72;4993062;28;20030;-66
2022/01/31 00:20:42;;;;;;;10.93;4.15;;;;;;;-0.17;100.00;95376.28;4993259;28;20053;-66
2022/01/31 00:23:08;;;;;;;14.57;4.05;;;;;;;-0.14;100.00;95369.81;4993300;28;20045;-66
2022/01/31 00:25:39;;;;;;;7.88;3.05;;;;;;;-0.08;100.00;95361.16;4993411;28;20019;-65
2022/01/31 00:28:05;;;;;;;9.02;3.78;;;;;;;-0.03;100.00;95358.75;4992928;28;20125;-66
2022/01/31 00:30:30;;;;;;;12.30;3.80;;;;;;;0.05;100.00;95366.53;4993556;28;20054;-67
2022/01/31 00:32:55;;;;;;;8.75;3.65;;;;;;;0.14;100.00;95357.47;4993159;28;20061;-66
2022/01/31 00:35:21;;;;;;;6.80;3.30;;;;;;;0.19;100.00;95351.59;4993251;28;20041;-67
2022/01/31 00:37:49;;;;;;;9.30;3.40;;;;;;;0.26;100.00;95348.00;4993001;28;20026;-65
2022/01/31 00:40:15;;;;;;;7.97;3.75;;;;;;;0.33;100.00;95336.69;4992105;28;20163;-66
2022/01/31 00:42:40;;;;;;;10.95;3.38;;;;;;;0.38;100.00;95329.81;4993052;28;20125;-65
2022/01/31 00:45:27;;;;;;;13.25;3.42;;;;;;;0.42;100.00;95315.25;4993140;28;20386;-66
2022/01/31 00:48:05;;;;;;;7.40;2.90;;;;;;;0.46;100.00;95292.78;4992987;28;20076;-66
2022/01/31 00:50:47;;;;;;;9.30;3.33;;;;;;;0.51;100.00;95289.53;4993244;28;20392;-67
2022/01/31 00:53:13;;;;;;;13.20;3.40;;;;;;;0.54;100.00;95294.41;4992080;28;20089;-66
2022/01/31 00:55:39;;;;;;;7.32;2.97;;;;;;;0.56;100.00;95282.69;4992976;28;20025;-66
2022/01/31 00:58:04;;;;;;;8.15;3.10;;;;;;;0.59;100.00;95278.81;4993122;28;20494;-66
2022/01/31 01:00:30;;;;;;;8.32;3.05;;;;;;;0.64;100.00;95286.13;4992934;28;20354;-66
2022/01/31 01:02:55;;;;;;;11.52;3.00;;;;;;;0.67;100.00;95281.28;5008006;28;20381;-66
2022/01/31 01:05:21;;;;;;;8.73;2.83;;;;;;;0.70;100.00;95266.91;4992774;28;20455;-66
2022/01/31 01:07:49;;;;;;;8.05;2.90;;;;;;;0.74;100.00;95257.56;4992953;28;20094;-66
2022/01/31 01:10:16;;;;;;;7.50;2.88;;;;;;;0.77;100.00;95271.19;4992787;28;20029;-66
2022/01/31 01:12:42;;;;;;;6.20;2.58;;;;;;;0.78;100.00;95261.44;4992805;28;20022;-65
2022/01/31 01:15:09;;;;;;;5.97;2.95;;;;;;;0.83;100.00;95262.47;4992791;28;20022;-66
2022/01/31 01:17:45;;;;;;;10.55;3.08;;;;;;;0.85;100.00;95249.88;4992664;28;20026;-65
2022/01/31 01:20:11;;;;;;;8.30;2.38;;;;;;;0.86;100.00;95240.94;5023848;28;20048;-66
2022/01/31 01:22:44;;;;;;;8.20;2.30;;;;;;;0.90;100.00;95245.84;4992650;28;20113;-65
2022/01/31 01:25:11;;;;;;;10.32;2.70;;;;;;;0.91;100.00;95247.47;4992777;28;20026;-66
2022/01/31 01:27:36;;;;;;;5.13;2.30;;;;;;;0.92;100.00;95243.81;5023745;28;20084;-66
2022/01/31 01:30:04;;;;;;;7.30;2.60;;;;;;;0.93;100.00;95254.16;4992844;28;20030;-66
2022/01/31 01:32:34;;;;;;;7.20;2.72;;;;;;;0.94;100.00;95261.06;4991545;28;20117;-66
2022/01/31 01:35:03;;;;;;;6.38;2.10;;;;;;;0.97;100.00;95275.66;4992793;28;20501;-66
2022/01/31 01:37:30;;;;;;;7.97;2.60;;;;;;;0.97;100.00;95270.38;4992686;28;20022;-66
2022/01/31 01:39:55;;;;;;;8.27;2.45;;;;;;;0.97;100.00;95273.84;4981999;28;20065;-65
2022/01/31 01:42:23;;;;;;;8.18;3.10;;;;;;;0.96;100.00;95274.03;4976833;28;20066;-66
2022/01/31 01:44:50;;;;;;;7.82;2.50;;;;;;;1.00;100.00;95270.81;4976602;28;20030;-65
2022/01/31 01:47:24;;;;;;;5.38;2.60;;;;;;;1.02;100.00;95263.50;4959396;28;20478;-66
2022/01/31 01:49:51;;;;;;;3.10;2.20;;;;;;;1.04;100.00;95250.94;4975293;28;20041;-65
2022/01/31 01:52:17;;;;;;;7.70;2.67;;;;;;;1.04;100.00;95253.56;4976723;28;20101;-66
2022/01/31 01:54:52;;;;;;;5.75;2.53;;;;;;;1.08;100.00;95238.13;4976441;28;20034;-65
2022/01/31 01:57:20;;;;;;;7.75;2.60;;;;;;;1.10;100.00;95238.78;4976705;28;20015;-66
2022/01/31 01:59:54;;;;;;;9.40;2.15;;;;;;;1.13;100.00;95233.09;4976508;28;20030;-66
2022/01/31 02:02:19;;;;;;;10.20;2.85;;;;;;;1.14;100.00;95240.78;4976776;28;20027;-66
2022/01/31 02:04:45;;;;;;;7.88;2.55;;;;;;;1.15;100.00;95234.50;4975132;28;20105;-66
2022/01/31 02:07:20;;;;;;;6.85;1.95;;;;;;;1.15;100.00;95223.94;4991965;28;20023;-66
2022/01/31 02:09:54;;;;;;;5.97;2.75;;;;;;;1.17;100.00;95223.75;4994579;28;20026;-65
2022/01/31 02:12:19;;;;;;;4.05;2.45;;;;;;;1.17;100.00;95223.75;4995749;28;20384;-66
2022/01/31 02:14:45;;;;;;;8.13;2.45;;;;;;;1.19;100.00;95216.44;4995652;28;20105;-66
2022/01/31 02:17:10;;;;;;;9.50;2.55;;;;;;;1.17;100.00;95200.81;4995539;28;20027;-66
2022/01/31 02:19:38;;;;;;;7.50;2.90;;;;;;;1.19;100.00;95192.69;4995552;28;20087;-66
2022/01/31 02:22:04;;;;;;;8.50;2.53;;;;;;;1.19;100.00;95197.97;4995450;28;20109;-66
2022/01/31 02:24:30;;;;;;;5.20;2.45;;;;;;;1.20;100.00;95182.97;4995523;28;20109;-65
2022/01/31 02:27:02;;;;;;;6.07;2.58;;;;;;;1.19;100.00;95171.56;4995243;28;20442;-66
2022/01/31 02:29:27;;;;;;;7.00;2.13;;;;;;;1.19;100.00;95170.75;4994019;28;20036;-65
2022/01/31 02:31:55;;;;;;;5.97;2.72;;;;;;;1.18;100.00;95172.59;5026976;28;20023;-65
2022/01/31 02:34:20;;;;;;;7.15;2.50;;;;;;;1.17;100.00;95165.69;4995241;28;20058;-66
2022/01/31 02:36:46;;;;;;;6.40;2.70;;;;;;;1.16;100.00;95179.91;4995343;28;20065;-66
2022/01/31 02:39:14;;;;;;;8.48;2.08;;;;;;;1.16;100.00;95166.72;4995213;28;20030;-66
2022/01/31 02:41:44;;;;;;;7.55;2.70;;;;;;;1.17;100.00;95165.69;4995326;28;20024;-66
2022/01/31 02:44:15;;;;;;;3.30;1.80;;;;;;;1.16;100.00;95174.63;4994911;28;20105;-66
2022/01/31 02:46:56;;;;;;;5.63;2.13;;;;;;;1.14;100.00;95161.66;4995000;28;20018;-66
2022/01/31 02:49:25;;;;;;;7.45;2.25;;;;;;;1.13;100.00;95160.03;4993781;28;20048;-66
2022/01/31 02:51:58;;;;;;;7.00;1.98;;;;;;;1.12;100.00;95147.84;4994735;28;20037;-65
2022/01/31 02:54:29;;;;;;;8.18;2.25;;;;;;;1.15;100.00;95136.88;4994862;28;20109;-66
2022/01/31 02:56:55;;;;;;;5.82;2.15;;;;;;;1.16;100.00;95112.13;4994928;28;20101;-66
2022/01/31 02:59:23;;;;;;;3.22;2.15;;;;;;;1.14;100.00;95113.34;4994933;28;20113;-66
2022/01/31 03:01:51;;;;;;;5.13;2.17;;;;;;;1.13;100.00;95106.47;4994903;28;20025;-66
2022/01/31 03:04:17;;;;;;;5.53;2.28;;;;;;;1.13;100.00;95099.34;4993516;28;20054;-67
2022/01/31 03:06:49;;;;;;;6.32;2.10;;;;;;;1.16;100.00;95093.66;4994593;28;20496;-66
2022/01/31 03:09:15;;;;;;;4.63;2.10;;;;;;;1.16;100.00;95098.94;4994753;28;20023;-66
2022/01/31 03:11:52;;;;;;;6.57;2.88;;;;;;;1.15;100.00;95097.31;5026000;28;20037;-65
2022/01/31 03:14:19;;;;;;;8.48;2.70;;;;;;;1.17;100.00;95097.09;4993279;28;20033;-65
2022/01/31 03:17:06;;;;;;;7.72;2.67;;;;;;;1.17;100.00;95110.28;4994497;28;20831;-66
2022/01/31 03:19:31;;;;;;;5.20;2.08;;;;;;;1.20;100.00;95115.19;4994425;28;20029;-65
2022/01/31 03:21:57;;;;;;;9.07;2.67;;;;;;;1.20;100.00;95103.81;4994261;28;20027;-65
2022/01/31 03:24:24;;;;;;;8.88;2.60;;;;;;;1.19;100.00;95094.25;4994568;28;20022;-65
2022/01/31 03:26:50;;;;;;;6.18;2.63;;;;;;;1.20;100.00;95082.72;4994232;28;20022;-66
2022/01/31 03:29:21;;;;;;;5.25;2.42;;;;;;;1.19;100.00;95087.16;5009235;28;20378;-66
2022/01/31 03:31:46;;;;;;;7.85;2.40;;;;;;;1.22;100.00;95084.13;4994080;28;20030;-65
2022/01/31 03:34:12;;;;;;;4.30;2.40;;;;;;;1.21;100.00;95076.41;4993208;28;20026;-66
2022/01/31 03:36:37;;;;;;;7.72;2.38;;;;;;;1.26;100.00;95092.44;4992789;28;20015;-66
2022/01/31 03:39:06;;;;;;;5.68;2.03;;;;;;;1.27;100.00;95091.41;4993367;28;20061;-66
2022/01/31 03:41:31;;;;;;;5.35;2.47;;;;;;;1.29;100.00;95076.97;4994020;28;20026;-66
2022/01/31 03:43:59;;;;;;;6.95;2.38;;;;;;;1.35;100.00;95070.88;4993902;28;20129;-65
2022/01/31 03:46:25;;;;;;;4.63;2.15;;;;;;;1.37;100.00;95060.13;4993921;28;20058;-65
2022/01/31 03:48:50;;;;;;;5.45;2.03;;;;;;;1.38;100.00;95064.38;4994016;28;20042;-66
2022/01/31 03:51:23;;;;;;;7.15;2.20;;;;;;;1.39;100.00;95050.16;4993795;28;20033;-66
2022/01/31 03:53:48;;;;;;;5.93;1.83;;;;;;;1.42;100.00;95033.94;4994116;28;20049;-65
2022/01/31 03:56:17;;;;;;;6.50;1.83;;;;;;;1.46;100.00;95014.00;4993826;28;20069;-66
2022/01/31 03:58:42;;;;;;;4.05;1.92;;;;;;;1.48;100.00;94997.97;5025358;28;20019;-66
2022/01/31 04:01:07;;;;;;;8.95;2.60;;;;;;;1.51;100.00;94986.97;4993626;28;20072;-66
2022/01/31 04:03:34;;;;;;;5.38;1.55;;;;;;;1.57;100.00;94997.50;5024040;28;20569;-64
2022/01/31 04:05:59;;;;;;;7.45;2.05;;;;;;;1.60;100.00;95004.19;4993571;28;20080;-66
2022/01/31 04:08:28;;;;;;;6.28;1.98;;;;;;;1.60;100.00;94991.78;4993572;28;20469;-65
2022/01/31 04:11:02;;;;;;;8.15;2.05;;;;;;;1.59;100.00;94987.53;4992291;28;20058;-66
2022/01/31 04:13:30;;;;;;;4.93;1.85;;;;;;;1.60;100.00;94975.16;4993145;28;20481;-66
2022/01/31 04:15:59;;;;;;;4.63;2.10;;;;;;;1.55;100.00;94977.63;4993552;28;20030;-65
2022/01/31 04:18:26;;;;;;;5.93;1.98;;;;;;;1.53;100.00;94971.75;4992055;28;20054;-66
2022/01/31 04:20:58;;;;;;;4.80;2.28;;;;;;;1.51;100.00;94973.78;4993426;28;20487;-65
2022/01/31 04:23:27;;;;;;;5.85;2.33;;;;;;;1.49;100.00;94973.19;4993571;28;20486;-66
2022/01/31 04:25:55;;;;;;;5.85;2.20;;;;;;;1.52;100.00;94970.09;4993369;28;20031;-66
2022/01/31 04:28:27;;;;;;;8.98;2.30;;;;;;;1.50;100.00;94946.56;4993258;28;20026;-66
2022/01/31 04:31:12;;;;;;;8.68;2.33;;;;;;;1.46;100.00;94919.00;4991884;28;20441;-66
2022/01/31 04:33:39;;;;;;;7.25;2.38;;;;;;;1.42;100.00;94909.88;4993120;28;20080;-66
2022/01/31 04:36:09;;;;;;;6.30;2.10;;;;;;;1.39;100.00;94916.38;4993156;28;20362;-66
2022/01/31 04:38:35;;;;;;;5.82;1.85;;;;;;;1.35;100.00;94912.56;4993249;28;20103;-65
2022/01/31 04:41:01;;;;;;;3.28;2.00;;;;;;;1.38;100.00;94917.41;4991738;28;20480;-66
2022/01/31 04:43:26;;;;;;;4.15;1.88;;;;;;;1.37;100.00;94912.34;4993014;28;20032;-66
2022/01/31 04:45:53;;;;;;;3.78;2.30;;;;;;;1.36;100.00;94905.44;4992987;28;20025;-66
2022/01/31 04:48:22;;;;;;;5.57;2.45;;;;;;;1.38;100.00;94898.13;4993030;28;20022;-65
2022/01/31 04:50:47;;;;;;;7.00;1.92;;;;;;;1.39;100.00;94882.06;4993024;28;20030;-66
2022/01/31 04:53:14;;;;;;;5.00;1.95;;;;;;;1.43;100.00;94900.94;4992975;28;20038;-66
2022/01/31 04:55:40;;;;;;;5.88;2.00;;;;;;;1.45;100.00;94904.19;4992835;28;20030;-65
2022/01/31 04:58:06;;;;;;;9.52;2.20;;;;;;;1.47;100.00;94893.41;4993073;28;20069;-66
2022/01/31 05:00:32;;;;;;;8.88;2.50;;;;;;;1.50;100.00;94901.69;4992889;28;20109;-66
2022/01/31 05:02:57;;;;;;;8.02;2.53;;;;;;;1.51;100.00;94895.41;4992853;28;20065;-65
2022/01/31 05:05:31;;;;;;;5.22;2.22;;;;;;;1.55;100.00;94893.16;4992805;28;20043;-65
2022/01/31 05:08:00;;;;;;;6.82;2.10;;;;;;;1.54;100.00;94884.44;4992998;28;20092;-66
2022/01/31 05:10:25;;;;;;;3.50;2.22;;;;;;;1.55;100.00;94866.75;4991495;28;20034;-65
2022/01/31 05:12:51;;;;;;;7.20;2.85;;;;;;;1.57;100.00;94854.97;4992858;28;20082;-65
2022/01/31 05:15:19;;;;;;;4.70;2.40;;;;;;;1.60;100.00;94848.44;4994918;28;20033;-66
2022/01/31 05:17:47;;;;;;;6.50;2.00;;;;;;;1.59;100.00;94845.00;4996564;28;20034;-66
2022/01/31 05:20:19;;;;;;;5.63;2.20;;;;;;;1.61;100.00;94831.56;4996661;28;20030;-66
2022/01/31 05:22:44;;;;;;;7.05;2.38;;;;;;;1.61;100.00;94831.56;4996522;28;20022;-65
2022/01/31 05:25:10;;;;;;;3.05;1.83;;;;;;;1.62;100.00;94830.53;4995144;28;20106;-66
2022/01/31 05:27:36;;;;;;;8.65;2.40;;;;;;;1.64;100.00;94824.06;4996538;28;20025;-66
2022/01/31 05:30:05;;;;;;;4.13;2.33;;;;;;;1.65;100.00;94812.47;4996530;28;20112;-66
2022/01/31 05:32:30;;;;;;;3.47;2.25;;;;;;;1.65;100.00;94812.47;4996708;28;20030;-66
2022/01/31 05:34:55;;;;;;;4.82;2.50;;;;;;;1.66;100.00;94806.16;4994890;28;20481;-66
2022/01/31 05:37:21;;;;;;;4.47;2.20;;;;;;;1.69;100.00;94792.50;4995442;28;20045;-65
2022/01/31 05:39:46;;;;;;;4.60;2.67;;;;;;;1.69;100.00;94779.31;4994935;28;20081;-66
2022/01/31 05:42:13;;;;;;;4.10;2.60;;;;;;;1.71;100.00;94793.09;4996231;28;20038;-66
2022/01/31 05:44:38;;;;;;;3.63;1.85;;;;;;;1.72;100.00;94789.44;4996034;28;20041;-66
2022/01/31 05:47:05;;;;;;;7.30;2.40;;;;;;;1.76;100.00;94805.66;4996138;28;20027;-65
2022/01/31 05:49:30;;;;;;;5.38;2.22;;;;;;;1.77;100.00;94798.56;4974234;28;20041;-66
2022/01/31 05:52:02;;;;;;;4.97;2.30;;;;;;;1.79;100.00;94773.53;5004983;28;20605;-65
2022/01/31 05:54:29;;;;;;;5.55;2.35;;;;;;;1.81;100.00;94782.03;5010476;28;20450;-67
2022/01/31 05:56:58;;;;;;;6.30;2.45;;;;;;;1.84;100.00;94775.50;4994800;28;20058;-66
2022/01/31 05:59:24;;;;;;;7.05;2.65;;;;;;;1.85;100.00;94772.69;4995910;28;20030;-65
2022/01/31 06:01:50;;;;;;;6.93;1.90;;;;;;;1.88;100.00;94768.78;5027290;28;20073;-65
2022/01/31 06:04:17;;;;;;;3.65;2.20;;;;;;;1.92;100.00;94775.25;5000874;23;20509;-69
2022/01/31 06:06:43;;;;;;;6.60;2.30;;;;;;;1.92;100.00;94770.75;4974861;28;20478;-68
2022/01/31 06:09:11;;;;;;;6.32;2.55;;;;;;;1.94;100.00;94773.19;4975857;28;20078;-68
2022/01/31 06:11:36;;;;;;;4.63;2.38;;;;;;;2.00;100.00;94761.75;4976084;28;20081;-69
2022/01/31 06:14:03;;;;;;;4.22;2.50;;;;;;;1.98;100.00;94754.06;4982065;28;20030;-69
2022/01/31 06:16:28;;;;;;;6.07;2.20;;;;;;;2.00;100.00;94753.84;4995420;28;20022;-68
2022/01/31 06:18:54;;;;;;;7.15;2.35;;;;;;;2.02;100.00;94730.63;4994307;28;20392;-68
2022/01/31 06:21:20;;;;;;;6.55;2.40;;;;;;;2.03;100.00;94737.53;4994170;28;20058;-68
2022/01/31 06:23:45;;;;;;;3.90;1.65;;;;;;;2.06;100.00;94750.28;4988509;28;20464;-68
2022/01/31 06:26:13;;;;;;;5.18;2.10;;;;;;;2.11;100.00;94749.66;4984345;28;20026;-68
2022/01/31 06:28:38;;;;;;;3.58;2.22;;;;;;;2.14;100.00;94752.66;4993433;28;20029;-68
2022/01/31 06:31:06;;;;;;;7.75;2.20;;;;;;;2.15;100.00;94756.91;4994715;28;20026;-68
2022/01/31 06:33:32;;;;;;;2.30;2.00;;;;;;;2.18;100.00;94755.69;4993089;28;20023;-68
2022/01/31 06:35:59;;;;;;;5.80;2.47;;;;;;;2.17;100.00;94738.19;4994493;28;20080;-68
2022/01/31 06:38:25;;;;;;;5.90;2.67;;;;;;;2.19;100.00;94738.78;4994309;28;20378;-68
2022/01/31 06:40:53;;;;;;;6.10;2.17;;;;;;;2.19;100.00;94723.75;4993456;28;20023;-68
2022/01/31 06:43:18;;;;;;;4.18;2.45;;;;;;;2.19;100.00;94721.09;4994798;28;20030;-68
2022/01/31 06:45:43;;;;;;;4.93;2.33;;;;;;;2.21;100.00;94724.31;4992299;28;20022;-68
2022/01/31 06:48:09;;;;;;;7.95;2.20;;;;;;;2.22;100.00;94725.94;4993601;28;20022;-68
2022/01/31 06:50:34;;;;;;;4.88;1.85;;;;;;;2.28;100.00;94737.47;4993228;28;20067;-68
2022/01/31 06:53:01;;;;;;;7.72;2.22;;;;;;;2.31;100.00;94737.81;5008497;28;20022;-68
2022/01/31 06:55:29;;;;;;;4.55;2.30;;;;;;;2.34;100.00;94739.22;4987411;28;20026;-68
2022/01/31 06:57:55;;;;;;;4.95;2.15;;;;;;;2.35;100.00;94742.66;4988991;28;20072;-68
2022/01/31 07:00:21;;;;;;;3.60;1.98;;;;;;;2.36;100.00;94739.00;4992650;28;20034;-68
2022/01/31 07:02:50;;;;;;;6.47;2.17;;;;;;;2.38;100.00;94731.63;4990279;28;20034;-68
2022/01/31 07:05:17;;;;;;;6.25;1.95;;;;;;;2.37;100.00;94738.75;4991455;28;20046;-68
2022/01/31 07:07:43;;;;;;;5.50;2.42;;;;;;;2.39;100.00;94744.66;4992471;28;20117;-68
2022/01/31 07:10:10;;;;;;;4.38;2.03;;;;;;;2.38;100.00;94750.94;4994187;28;20022;-68
2022/01/31 07:12:40;;;;;;;2.90;2.00;;;;;;;2.41;100.00;94747.88;4987567;28;20022;-68
2022/01/31 07:15:08;;;;;;;3.97;2.00;;;;;;;2.43;100.00;94737.88;4989440;28;20022;-68
2022/01/31 07:17:35;;;;;;;5.85;2.00;;;;;;;2.44;100.00;94738.69;5022682;28;20026;-68
2022/01/31 07:20:09;;;;;;;4.60;2.25;;;;;;;2.46;100.00;94741.91;4992898;28;20501;-68
2022/01/31 07:22:37;;;;;;;6.13;1.73;;;;;;;2.48;100.00;94734.56;4996069;28;20045;-68
2022/01/31 07:25:08;;;;;;;4.20;1.88;;;;;;;2.49;100.00;94718.47;4994576;28;20026;-68
